createdAt,value
2017-12-01T00:00:34.089Z,3.59
2017-12-01T00:01:34.798Z,3.55
2017-12-01T00:02:35.509Z,3.50
2017-12-01T00:03:36.211Z,3.47
2017-12-01T00:04:36.912Z,3.59
2017-12-01T00:05:37.614Z,3.56
2017-12-01T00:06:38.318Z,3.58
2017-12-01T00:07:39.021Z,3.56
2017-12-01T00:08:39.723Z,3.50
2017-12-01T00:09:40.428Z,3.45
2017-12-01T00:10:41.133Z,3.55
2017-12-01T00:11:41.848Z,3.47
2017-12-01T00:12:42.552Z,3.44
2017-12-01T00:13:43.256Z,3.50
2017-12-01T00:14:43.970Z,3.47
2017-12-01T00:15:44.673Z,3.47
2017-12-01T00:16:45.395Z,3.50
2017-12-01T00:17:46.096Z,3.51
2017-12-01T00:18:46.812Z,3.50
2017-12-01T00:19:47.515Z,3.47
2017-12-01T00:20:48.230Z,3.47
2017-12-01T00:21:48.945Z,3.48
2017-12-01T00:22:49.661Z,3.51
2017-12-01T00:23:50.366Z,3.48
2017-12-01T00:24:51.071Z,3.60
2017-12-01T00:25:51.788Z,3.47
2017-12-01T00:26:52.503Z,3.50
2017-12-01T00:27:53.206Z,3.53
2017-12-01T00:28:53.909Z,3.51
2017-12-01T00:29:54.613Z,3.51
2017-12-01T00:30:55.329Z,3.63
2017-12-01T00:31:56.031Z,3.53
2017-12-01T00:32:56.736Z,3.53
2017-12-01T00:33:57.439Z,3.51
2017-12-01T00:34:58.143Z,3.47
2017-12-01T00:35:58.859Z,3.50
2017-12-01T00:36:59.566Z,3.47
2017-12-01T00:38:00.267Z,3.44
2017-12-01T00:39:00.972Z,3.50
2017-12-01T00:40:01.677Z,3.44
2017-12-01T00:41:02.381Z,3.48
2017-12-01T00:42:03.084Z,3.44
2017-12-01T00:43:03.790Z,3.41
2017-12-01T00:44:04.505Z,3.47
2017-12-01T00:45:05.220Z,3.44
2017-12-01T00:46:05.927Z,3.42
2017-12-01T00:47:06.627Z,3.47
2017-12-01T00:48:07.331Z,3.41
2017-12-01T00:49:08.035Z,3.45
2017-12-01T00:50:08.738Z,3.41
2017-12-01T00:51:09.442Z,3.48
2017-12-01T00:52:10.147Z,3.34
2017-12-01T00:53:10.851Z,3.42
2017-12-01T00:54:11.555Z,3.40
2017-12-01T00:55:12.258Z,3.47
2017-12-01T00:56:12.974Z,3.36
2017-12-01T00:57:13.676Z,3.42
2017-12-01T00:58:14.382Z,3.41
2017-12-01T00:59:15.104Z,3.47
2017-12-01T01:00:15.802Z,3.44
2017-12-01T01:01:16.507Z,3.45
2017-12-01T01:02:17.210Z,3.40
2017-12-01T01:03:17.915Z,3.36
2017-12-01T01:04:18.619Z,3.36
2017-12-01T01:05:19.325Z,3.40
2017-12-01T01:06:20.041Z,3.37
2017-12-01T01:07:20.744Z,3.40
2017-12-01T01:08:21.446Z,3.34
2017-12-01T01:09:22.150Z,3.28
2017-12-01T01:10:22.853Z,3.29
2017-12-01T01:11:23.557Z,3.34
2017-12-01T01:12:24.260Z,3.40
2017-12-01T01:13:24.998Z,3.48
2017-12-01T01:14:25.669Z,3.32
2017-12-01T01:15:26.371Z,3.31
2017-12-01T01:16:27.088Z,3.37
2017-12-01T01:17:27.804Z,3.42
2017-12-01T01:18:28.515Z,3.28
2017-12-01T01:19:29.226Z,3.28
2017-12-01T01:20:29.942Z,3.37
2017-12-01T01:21:30.643Z,3.34
2017-12-01T01:22:31.346Z,3.32
2017-12-01T01:23:32.049Z,3.34
2017-12-01T01:24:32.752Z,3.36
2017-12-01T01:25:33.456Z,3.36
2017-12-01T01:26:34.160Z,3.40
2017-12-01T01:27:34.895Z,3.31
2017-12-01T01:28:35.578Z,3.34
2017-12-01T01:29:36.282Z,3.40
2017-12-01T01:30:36.986Z,3.34
2017-12-01T01:31:37.689Z,3.29
2017-12-01T01:32:38.390Z,3.34
2017-12-01T01:33:39.092Z,3.40
2017-12-01T01:34:39.806Z,3.31
2017-12-01T01:35:40.511Z,3.36
2017-12-01T01:36:41.214Z,3.40
2017-12-01T01:37:41.925Z,3.36
2017-12-01T01:38:42.633Z,3.31
2017-12-01T01:39:43.336Z,3.34
2017-12-01T01:40:44.052Z,3.34
2017-12-01T01:41:44.757Z,3.37
2017-12-01T01:42:45.466Z,3.32
2017-12-01T01:43:46.167Z,3.31
2017-12-01T01:44:46.872Z,3.28
2017-12-01T01:45:47.576Z,3.21
2017-12-01T01:46:48.281Z,3.29
2017-12-01T01:47:48.984Z,3.14
2017-12-01T01:48:49.690Z,3.26
2017-12-01T01:49:50.395Z,3.32
2017-12-01T01:50:51.111Z,3.22
2017-12-01T01:51:51.814Z,3.21
2017-12-01T01:52:52.516Z,3.21
2017-12-01T01:53:53.232Z,3.11
2017-12-01T01:54:53.949Z,3.16
2017-12-01T01:55:54.649Z,3.22
2017-12-01T01:56:55.354Z,3.25
2017-12-01T01:57:56.056Z,3.26
2017-12-01T01:58:56.774Z,3.23
2017-12-01T01:59:57.479Z,3.16
2017-12-01T02:00:58.184Z,3.18
2017-12-01T02:01:58.888Z,3.25
2017-12-01T02:02:59.603Z,3.34
2017-12-01T02:04:00.305Z,3.28
2017-12-01T02:05:01.007Z,3.22
2017-12-01T02:06:01.709Z,3.26
2017-12-01T02:07:02.412Z,3.21
2017-12-01T02:08:03.128Z,3.34
2017-12-01T02:09:03.845Z,3.31
2017-12-01T02:10:04.551Z,3.29
2017-12-01T02:11:05.255Z,3.29
2017-12-01T02:12:05.960Z,3.29
2017-12-01T02:13:06.663Z,3.29
2017-12-01T02:14:07.367Z,3.25
2017-12-01T02:15:08.070Z,3.37
2017-12-01T02:16:08.774Z,3.32
2017-12-01T02:17:09.477Z,3.37
2017-12-01T02:18:10.180Z,3.32
2017-12-01T02:19:10.882Z,3.32
2017-12-01T02:20:11.585Z,3.41
2017-12-01T02:21:12.291Z,3.31
2017-12-01T02:22:13.004Z,3.23
2017-12-01T02:23:13.710Z,3.31
2017-12-01T02:24:14.414Z,3.34
2017-12-01T02:25:15.117Z,3.31
2017-12-01T02:26:15.833Z,3.37
2017-12-01T02:27:16.537Z,3.31
2017-12-01T02:28:17.245Z,3.26
2017-12-01T02:29:17.957Z,3.31
2017-12-01T02:30:18.662Z,3.26
2017-12-01T02:31:19.368Z,3.14
2017-12-01T02:32:20.070Z,3.19
2017-12-01T02:33:20.769Z,3.14
2017-12-01T02:34:21.474Z,3.21
2017-12-01T02:35:22.190Z,3.32
2017-12-01T02:36:22.893Z,3.26
2017-12-01T02:37:23.608Z,3.18
2017-12-01T02:38:24.311Z,3.18
2017-12-01T02:39:25.020Z,3.31
2017-12-01T02:40:25.730Z,3.19
2017-12-01T02:41:26.456Z,3.36
2017-12-01T02:42:27.163Z,3.21
2017-12-01T02:43:27.888Z,3.18
2017-12-01T02:44:28.586Z,3.29
2017-12-01T02:45:29.292Z,3.22
2017-12-01T02:46:29.998Z,3.32
2017-12-01T02:47:30.701Z,3.29
2017-12-01T02:48:31.405Z,3.23
2017-12-01T02:49:32.112Z,3.23
2017-12-01T02:50:32.815Z,3.26
2017-12-01T02:51:33.521Z,3.25
2017-12-01T02:52:34.225Z,3.22
2017-12-01T02:53:34.929Z,3.19
2017-12-01T02:54:35.633Z,3.18
2017-12-01T02:55:36.337Z,3.19
2017-12-01T02:56:37.038Z,3.16
2017-12-01T02:57:37.744Z,3.21
2017-12-01T02:58:38.458Z,3.16
2017-12-01T02:59:39.161Z,3.25
2017-12-01T03:00:39.865Z,3.18
2017-12-01T03:01:40.567Z,3.18
2017-12-01T03:02:41.284Z,3.14
2017-12-01T03:03:41.989Z,3.19
2017-12-01T03:04:42.692Z,3.25
2017-12-01T03:05:43.394Z,3.21
2017-12-01T03:06:44.098Z,3.19
2017-12-01T03:07:44.801Z,3.26
2017-12-01T03:08:45.505Z,3.21
2017-12-01T03:09:46.213Z,3.28
2017-12-01T03:10:46.912Z,3.26
2017-12-01T03:11:47.616Z,3.29
2017-12-01T03:12:48.321Z,3.29
2017-12-01T03:13:49.024Z,3.28
2017-12-01T03:14:49.736Z,3.28
2017-12-01T03:15:50.448Z,3.28
2017-12-01T03:16:51.155Z,3.32
2017-12-01T03:17:51.872Z,3.31
2017-12-01T03:18:52.575Z,3.19
2017-12-01T03:19:53.278Z,3.18
2017-12-01T03:20:54.023Z,3.21
2017-12-01T03:21:54.686Z,3.19
2017-12-01T03:22:55.392Z,3.21
2017-12-01T03:23:56.096Z,3.23
2017-12-01T03:24:56.800Z,3.19
2017-12-01T03:25:57.508Z,3.22
2017-12-01T03:26:58.207Z,3.19
2017-12-01T03:27:58.911Z,3.14
2017-12-01T03:28:59.626Z,3.18
2017-12-01T03:30:00.330Z,3.19
2017-12-01T03:31:01.034Z,3.23
2017-12-01T03:32:01.736Z,3.14
2017-12-01T03:33:02.440Z,3.18
2017-12-01T03:34:03.142Z,3.18
2017-12-01T03:35:03.845Z,3.18
2017-12-01T03:36:04.548Z,3.19
2017-12-01T03:37:05.252Z,3.22
2017-12-01T03:38:05.955Z,3.21
2017-12-01T03:39:06.661Z,3.11
2017-12-01T03:40:07.364Z,3.14
2017-12-01T03:41:08.078Z,3.14
2017-12-01T03:42:08.780Z,3.14
2017-12-01T03:43:09.483Z,3.22
2017-12-01T03:44:10.185Z,3.23
2017-12-01T03:45:10.889Z,3.23
2017-12-01T03:46:11.593Z,3.19
2017-12-01T03:47:12.308Z,3.21
2017-12-01T03:48:13.013Z,3.26
2017-12-01T03:49:13.715Z,3.23
2017-12-01T03:50:14.433Z,3.22
2017-12-01T03:51:15.135Z,3.31
2017-12-01T03:52:15.839Z,3.23
2017-12-01T03:53:16.545Z,3.19
2017-12-01T03:54:17.260Z,3.14
2017-12-01T03:55:17.964Z,3.21
2017-12-01T03:56:18.669Z,3.22
2017-12-01T03:57:19.373Z,3.18
2017-12-01T03:58:20.084Z,3.23
2017-12-01T03:59:20.782Z,3.22
2017-12-01T04:00:21.488Z,3.19
2017-12-01T04:01:22.191Z,3.26
2017-12-01T04:02:22.896Z,3.28
2017-12-01T04:03:23.600Z,3.18
2017-12-01T04:04:24.304Z,3.21
2017-12-01T04:05:25.008Z,3.21
2017-12-01T04:06:25.719Z,3.28
2017-12-01T04:07:26.416Z,3.29
2017-12-01T04:08:27.121Z,3.31
2017-12-01T04:09:27.825Z,3.26
2017-12-01T04:10:28.530Z,3.22
2017-12-01T04:11:29.233Z,3.28
2017-12-01T04:12:29.938Z,3.19
2017-12-01T04:13:30.643Z,3.31
2017-12-01T04:14:31.345Z,3.21
2017-12-01T04:15:32.050Z,3.16
2017-12-01T04:16:32.754Z,3.34
2017-12-01T04:17:33.459Z,3.23
2017-12-01T04:18:34.164Z,3.29
2017-12-01T04:19:34.868Z,3.19
2017-12-01T04:20:35.572Z,3.29
2017-12-01T04:21:36.276Z,3.32
2017-12-01T04:22:36.980Z,3.34
2017-12-01T04:23:37.684Z,3.32
2017-12-01T04:24:38.389Z,3.28
2017-12-01T04:25:39.094Z,3.29
2017-12-01T04:26:39.798Z,3.40
2017-12-01T04:27:40.502Z,3.36
2017-12-01T04:28:41.207Z,3.34
2017-12-01T04:29:41.949Z,3.36
2017-12-01T04:30:42.625Z,3.31
2017-12-01T04:31:43.341Z,3.36
2017-12-01T04:32:44.046Z,3.36
2017-12-01T04:33:44.755Z,3.41
2017-12-01T04:34:45.458Z,3.37
2017-12-01T04:35:46.159Z,3.32
2017-12-01T04:36:46.862Z,3.40
2017-12-01T04:37:47.570Z,3.31
2017-12-01T04:38:48.273Z,3.34
2017-12-01T04:39:48.973Z,3.32
2017-12-01T04:40:49.677Z,3.36
2017-12-01T04:41:50.382Z,3.34
2017-12-01T04:42:51.084Z,3.37
2017-12-01T04:43:51.817Z,3.32
2017-12-01T04:44:52.492Z,3.48
2017-12-01T04:45:53.197Z,3.29
2017-12-01T04:46:53.902Z,3.42
2017-12-01T04:47:54.604Z,3.42
2017-12-01T04:48:55.308Z,3.42
2017-12-01T04:49:56.013Z,3.45
2017-12-01T04:50:56.719Z,3.47
2017-12-01T04:51:57.433Z,3.44
2017-12-01T04:52:58.140Z,3.47
2017-12-01T04:53:58.856Z,3.55
2017-12-01T04:54:59.560Z,3.56
2017-12-01T04:56:00.265Z,3.44
2017-12-01T04:57:00.981Z,3.51
2017-12-01T04:58:01.696Z,3.48
2017-12-01T04:59:02.400Z,3.47
2017-12-01T05:00:03.104Z,3.47
2017-12-01T05:01:03.825Z,3.47
2017-12-01T05:02:04.528Z,3.45
2017-12-01T05:03:05.255Z,3.48
2017-12-01T05:04:05.939Z,3.36
2017-12-01T05:05:06.655Z,3.37
2017-12-01T05:06:07.359Z,3.45
2017-12-01T05:07:08.064Z,3.51
2017-12-01T05:08:08.772Z,3.48
2017-12-01T05:09:09.481Z,3.48
2017-12-01T05:10:10.196Z,3.47
2017-12-01T05:11:10.899Z,3.47
2017-12-01T05:12:11.602Z,3.58
2017-12-01T05:13:12.320Z,3.50
2017-12-01T05:14:13.023Z,3.53
2017-12-01T05:15:13.742Z,3.58
2017-12-01T05:16:14.441Z,3.59
2017-12-01T05:17:15.146Z,3.59
2017-12-01T05:18:15.850Z,3.59
2017-12-01T05:19:16.566Z,3.58
2017-12-01T05:20:17.269Z,3.58
2017-12-01T05:21:17.983Z,3.60
2017-12-01T05:22:18.687Z,3.58
2017-12-01T05:23:19.391Z,3.60
2017-12-01T05:24:20.095Z,3.56
2017-12-01T05:25:20.798Z,3.58
2017-12-01T05:26:21.502Z,3.60
2017-12-01T05:27:22.206Z,3.62
2017-12-01T05:28:22.910Z,3.56
2017-12-01T05:29:23.625Z,3.62
2017-12-01T05:30:24.330Z,3.62
2017-12-01T05:31:25.047Z,3.68
2017-12-01T05:32:25.763Z,3.55
2017-12-01T05:33:26.466Z,3.53
2017-12-01T05:34:27.168Z,3.63
2017-12-01T05:35:27.873Z,3.50
2017-12-01T05:36:28.617Z,3.58
2017-12-01T05:37:29.291Z,3.60
2017-12-01T05:38:29.995Z,3.55
2017-12-01T05:39:30.701Z,3.56
2017-12-01T05:40:31.405Z,3.60
2017-12-01T05:41:32.109Z,3.59
2017-12-01T05:42:32.816Z,3.60
2017-12-01T05:43:33.522Z,3.56
2017-12-01T05:44:34.241Z,3.56
2017-12-01T05:45:34.939Z,3.56
2017-12-01T05:46:35.640Z,3.59
2017-12-01T05:47:36.343Z,3.59
2017-12-01T05:48:37.046Z,3.58
2017-12-01T05:49:37.749Z,3.56
2017-12-01T05:50:38.453Z,3.51
2017-12-01T05:51:39.170Z,3.47
2017-12-01T05:52:39.875Z,3.51
2017-12-01T05:53:40.579Z,3.59
2017-12-01T05:54:41.301Z,3.55
2017-12-01T05:55:41.986Z,3.56
2017-12-01T05:56:42.704Z,3.48
2017-12-01T05:57:43.408Z,3.59
2017-12-01T05:58:44.124Z,3.53
2017-12-01T05:59:44.840Z,3.56
2017-12-01T06:00:45.542Z,3.59
2017-12-01T06:01:46.246Z,3.56
2017-12-01T06:02:46.959Z,3.58
2017-12-01T06:03:47.716Z,3.56
2017-12-01T06:04:48.381Z,3.68
2017-12-01T06:05:49.083Z,3.59
2017-12-01T06:06:49.795Z,3.58
2017-12-01T06:07:50.503Z,3.59
2017-12-01T06:08:51.206Z,3.63
2017-12-01T06:09:51.923Z,3.59
2017-12-01T06:10:52.627Z,3.66
2017-12-01T06:11:53.343Z,3.59
2017-12-01T06:12:54.049Z,3.73
2017-12-01T06:13:54.753Z,3.62
2017-12-01T06:14:55.468Z,3.77
2017-12-01T06:15:56.172Z,3.66
2017-12-01T06:16:56.881Z,3.70
2017-12-01T06:17:57.593Z,3.70
2017-12-01T06:18:58.307Z,3.70
2017-12-01T06:19:59.029Z,3.73
2017-12-01T06:20:59.729Z,3.73
2017-12-01T06:22:00.447Z,3.73
2017-12-01T06:23:01.150Z,3.73
2017-12-01T06:24:01.853Z,3.80
2017-12-01T06:25:02.606Z,3.73
2017-12-01T06:26:03.258Z,3.69
2017-12-01T06:27:03.964Z,3.78
2017-12-01T06:28:04.668Z,3.69
2017-12-01T06:29:05.383Z,3.62
2017-12-01T06:30:06.087Z,3.73
2017-12-01T06:31:06.792Z,3.76
2017-12-01T06:32:07.496Z,3.70
2017-12-01T06:33:08.200Z,3.74
2017-12-01T06:34:08.903Z,3.59
2017-12-01T06:35:09.605Z,3.62
2017-12-01T06:36:10.312Z,3.65
2017-12-01T06:37:11.013Z,3.58
2017-12-01T06:38:11.716Z,3.56
2017-12-01T06:39:12.418Z,3.58
2017-12-01T06:40:13.135Z,3.59
2017-12-01T06:41:13.852Z,3.58
2017-12-01T06:42:14.553Z,3.58
2017-12-01T06:43:15.258Z,3.58
2017-12-01T06:44:15.962Z,3.60
2017-12-01T06:45:16.664Z,3.50
2017-12-01T06:46:17.381Z,3.45
2017-12-01T06:47:18.086Z,3.60
2017-12-01T06:48:18.791Z,3.48
2017-12-01T06:49:19.497Z,3.53
2017-12-01T06:50:20.214Z,3.48
2017-12-01T06:51:20.917Z,3.44
2017-12-01T06:52:21.631Z,3.44
2017-12-01T06:53:22.336Z,3.40
2017-12-01T06:54:23.041Z,3.45
2017-12-01T06:55:23.746Z,3.42
2017-12-01T06:56:24.463Z,3.45
2017-12-01T06:57:25.171Z,3.42
2017-12-01T06:58:25.876Z,3.41
2017-12-01T06:59:26.594Z,3.41
2017-12-01T07:00:27.297Z,3.40
2017-12-01T07:01:28.005Z,3.41
2017-12-01T07:02:28.706Z,3.45
2017-12-01T07:03:29.409Z,3.48
2017-12-01T07:04:30.114Z,3.45
2017-12-01T07:05:30.818Z,3.41
2017-12-01T07:06:31.523Z,3.40
2017-12-01T07:07:32.225Z,3.45
2017-12-01T07:08:32.929Z,3.45
2017-12-01T07:09:33.632Z,3.48
2017-12-01T07:10:34.336Z,3.45
2017-12-01T07:11:35.053Z,3.48
2017-12-01T07:12:35.760Z,3.45
2017-12-01T07:13:36.482Z,3.58
2017-12-01T07:14:37.197Z,3.45
2017-12-01T07:15:37.902Z,3.50
2017-12-01T07:16:38.605Z,3.48
2017-12-01T07:17:39.322Z,3.47
2017-12-01T07:18:40.028Z,3.47
2017-12-01T07:19:40.735Z,3.41
2017-12-01T07:20:41.439Z,3.34
2017-12-01T07:21:42.146Z,3.37
2017-12-01T07:22:42.853Z,3.36
2017-12-01T07:23:43.558Z,3.36
2017-12-01T07:24:44.263Z,3.40
2017-12-01T07:25:44.972Z,3.48
2017-12-01T07:26:45.690Z,3.40
2017-12-01T07:27:46.396Z,3.36
2017-12-01T07:28:47.113Z,3.40
2017-12-01T07:29:47.831Z,3.36
2017-12-01T07:30:48.547Z,3.48
2017-12-01T07:31:49.253Z,3.36
2017-12-01T07:32:50.015Z,3.37
2017-12-01T07:33:50.722Z,3.41
2017-12-01T07:34:51.473Z,3.44
2017-12-01T07:35:52.150Z,3.44
2017-12-01T07:36:52.857Z,3.45
2017-12-01T07:37:53.564Z,3.44
2017-12-01T07:38:54.283Z,3.44
2017-12-01T07:39:55.005Z,3.55
2017-12-01T07:40:55.712Z,3.48
2017-12-01T07:41:56.422Z,3.55
2017-12-01T07:42:57.129Z,3.56
2017-12-01T07:43:57.870Z,3.62
2017-12-01T07:44:58.577Z,3.59
2017-12-01T07:45:59.283Z,3.63
2017-12-01T07:46:59.989Z,3.59
2017-12-01T07:48:00.706Z,3.65
2017-12-01T07:49:01.416Z,3.62
2017-12-01T07:50:02.136Z,3.58
2017-12-01T07:51:02.846Z,3.60
2017-12-01T07:52:03.553Z,3.58
2017-12-01T07:53:04.259Z,3.59
2017-12-01T07:54:04.967Z,3.59
2017-12-01T07:55:05.673Z,3.63
2017-12-01T07:56:06.381Z,3.68
2017-12-01T07:57:07.089Z,3.65
2017-12-01T07:58:07.807Z,3.62
2017-12-01T07:59:08.521Z,3.63
2017-12-01T08:00:09.229Z,3.73
2017-12-01T08:01:09.936Z,3.70
2017-12-01T08:02:10.641Z,3.73
2017-12-01T08:03:11.347Z,3.81
2017-12-01T08:04:12.053Z,3.81
2017-12-01T08:05:12.760Z,3.78
2017-12-01T08:06:13.466Z,3.84
2017-12-01T08:07:14.174Z,3.76
2017-12-01T08:08:14.881Z,3.80
2017-12-01T08:09:15.590Z,3.87
2017-12-01T08:10:16.316Z,3.94
2017-12-01T08:11:17.020Z,3.95
2017-12-01T08:12:17.728Z,3.92
2017-12-01T08:13:18.434Z,3.91
2017-12-01T08:14:19.142Z,3.86
2017-12-01T08:15:19.849Z,3.98
2017-12-01T08:16:20.555Z,3.96
2017-12-01T08:17:21.274Z,3.99
2017-12-01T08:18:21.982Z,4.02
2017-12-01T08:19:22.692Z,4.04
2017-12-01T08:20:23.399Z,4.05
2017-12-01T08:21:24.108Z,4.05
2017-12-01T08:22:24.822Z,4.05
2017-12-01T08:23:25.525Z,4.10
2017-12-01T08:24:26.235Z,4.08
2017-12-01T08:25:26.945Z,4.05
2017-12-01T08:26:27.696Z,4.05
2017-12-01T08:27:28.373Z,4.05
2017-12-01T08:28:29.084Z,4.10
2017-12-01T08:29:29.793Z,4.04
2017-12-01T08:30:30.501Z,4.12
2017-12-01T08:31:31.209Z,4.10
2017-12-01T08:32:31.917Z,4.06
2017-12-01T08:33:32.626Z,4.14
2017-12-01T08:34:33.333Z,4.16
2017-12-01T08:35:34.042Z,4.05
2017-12-01T08:36:34.765Z,4.16
2017-12-01T08:37:35.484Z,4.13
2017-12-01T08:38:36.192Z,4.17
2017-12-01T08:39:36.900Z,4.14
2017-12-01T08:40:37.610Z,4.08
2017-12-01T08:41:38.319Z,4.10
2017-12-01T08:42:39.041Z,4.10
2017-12-01T08:43:39.760Z,4.19
2017-12-01T08:44:40.481Z,4.10
2017-12-01T08:45:41.199Z,4.17
2017-12-01T08:46:41.925Z,4.24
2017-12-01T08:47:42.624Z,4.30
2017-12-01T08:48:43.335Z,4.28
2017-12-01T08:49:44.043Z,4.24
2017-12-01T08:50:44.752Z,4.30
2017-12-01T08:51:45.461Z,4.32
2017-12-01T08:52:46.170Z,4.31
2017-12-01T08:53:46.879Z,4.35
2017-12-01T08:54:47.590Z,4.38
2017-12-01T08:55:48.311Z,4.37
2017-12-01T08:56:49.020Z,4.41
2017-12-01T08:57:49.730Z,4.40
2017-12-01T08:58:50.439Z,4.35
2017-12-01T08:59:51.162Z,4.34
2017-12-01T09:00:51.871Z,4.41
2017-12-01T09:01:52.597Z,4.42
2017-12-01T09:02:53.318Z,4.41
2017-12-01T09:03:54.041Z,4.48
2017-12-01T09:04:54.753Z,4.42
2017-12-01T09:05:55.474Z,4.52
2017-12-01T09:06:56.185Z,4.59
2017-12-01T09:07:56.893Z,4.55
2017-12-01T09:08:57.615Z,4.63
2017-12-01T09:09:58.324Z,4.68
2017-12-01T09:10:59.035Z,4.84
2017-12-01T09:11:59.748Z,5.04
2017-12-01T09:13:00.472Z,5.38
2017-12-01T09:14:01.183Z,5.73
2017-12-01T09:15:01.898Z,5.94
2017-12-01T09:16:02.606Z,6.01
2017-12-01T09:17:03.329Z,5.83
2017-12-01T09:18:04.052Z,5.84
2017-12-01T09:19:04.776Z,5.87
2017-12-01T09:20:05.492Z,5.89
2017-12-01T09:21:06.216Z,5.97
2017-12-01T09:22:06.925Z,6.02
2017-12-01T09:23:07.636Z,6.38
2017-12-01T09:24:08.348Z,6.54
2017-12-01T09:25:09.064Z,6.63
2017-12-01T09:26:09.786Z,6.59
2017-12-01T09:27:10.500Z,6.52
2017-12-01T09:28:11.212Z,6.54
2017-12-01T09:29:11.925Z,6.51
2017-12-01T09:30:12.651Z,6.41
2017-12-01T09:31:13.363Z,6.45
2017-12-01T09:32:14.091Z,6.60
2017-12-01T09:33:14.803Z,6.96
2017-12-01T09:34:15.535Z,7.45
2017-12-01T09:35:16.255Z,7.91
2017-12-01T09:36:16.965Z,8.44
2017-12-01T09:37:17.682Z,8.87
2017-12-01T09:38:18.400Z,9.36
2017-12-01T09:39:19.127Z,9.16
2017-12-01T09:40:19.857Z,8.76
2017-12-01T09:41:20.574Z,8.64
2017-12-01T09:42:21.304Z,8.48
2017-12-01T09:43:22.033Z,8.67
2017-12-01T09:44:22.751Z,8.36
2017-12-01T09:45:23.465Z,8.33
2017-12-01T09:46:24.182Z,8.13
2017-12-01T09:47:24.910Z,8.20
2017-12-01T09:48:25.628Z,8.20
2017-12-01T09:49:26.348Z,8.13
2017-12-01T09:50:27.074Z,8.05
2017-12-01T09:51:27.788Z,8.10
2017-12-01T09:52:28.517Z,8.01
2017-12-01T09:53:29.232Z,7.85
2017-12-01T09:54:29.946Z,7.75
2017-12-01T09:55:30.674Z,7.56
2017-12-01T09:56:31.389Z,7.47
2017-12-01T09:57:32.106Z,7.51
2017-12-01T09:58:32.823Z,7.54
2017-12-01T09:59:33.548Z,7.54
2017-12-01T10:00:34.265Z,7.75
2017-12-01T10:01:34.992Z,7.77
2017-12-01T10:02:35.708Z,7.72
2017-12-01T10:03:36.436Z,7.79
2017-12-01T10:04:37.151Z,7.70
2017-12-01T10:05:37.868Z,7.66
2017-12-01T10:06:38.593Z,7.53
2017-12-01T10:07:39.310Z,7.54
2017-12-01T10:08:40.039Z,7.56
2017-12-01T10:09:40.754Z,7.38
2017-12-01T10:10:41.481Z,7.51
2017-12-01T10:11:42.195Z,7.54
2017-12-01T10:12:42.911Z,7.75
2017-12-01T10:13:43.630Z,7.76
2017-12-01T10:14:44.356Z,7.93
2017-12-01T10:15:45.070Z,8.08
2017-12-01T10:16:45.786Z,8.01
2017-12-01T10:17:46.504Z,7.82
2017-12-01T10:18:47.218Z,7.91
2017-12-01T10:19:47.945Z,7.79
2017-12-01T10:20:48.659Z,7.82
2017-12-01T10:21:49.375Z,7.73
2017-12-01T10:22:50.092Z,7.66
2017-12-01T10:23:50.819Z,7.53
2017-12-01T10:24:51.578Z,7.53
2017-12-01T10:25:52.248Z,7.45
2017-12-01T10:26:52.963Z,7.38
2017-12-01T10:27:53.692Z,7.47
2017-12-01T10:28:54.407Z,7.50
2017-12-01T10:29:55.132Z,7.51
2017-12-01T10:30:55.860Z,7.56
2017-12-01T10:31:56.577Z,7.56
2017-12-01T10:32:57.301Z,7.51
2017-12-01T10:33:58.015Z,7.53
2017-12-01T10:34:58.731Z,7.51
2017-12-01T10:35:59.448Z,7.35
2017-12-01T10:37:00.174Z,7.33
2017-12-01T10:38:00.889Z,7.38
2017-12-01T10:39:01.604Z,7.42
2017-12-01T10:40:02.322Z,7.32
2017-12-01T10:41:03.037Z,7.36
2017-12-01T10:42:03.750Z,7.20
2017-12-01T10:43:04.467Z,7.25
2017-12-01T10:44:05.192Z,7.06
2017-12-01T10:45:05.914Z,6.92
2017-12-01T10:46:06.631Z,6.97
2017-12-01T10:47:07.386Z,6.96
2017-12-01T10:48:08.102Z,6.99
2017-12-01T10:49:08.816Z,6.93
2017-12-01T10:50:09.543Z,6.99
2017-12-01T10:51:10.256Z,6.88
2017-12-01T10:52:10.968Z,6.87
2017-12-01T10:53:11.688Z,6.89
2017-12-01T10:54:12.397Z,6.84
2017-12-01T10:55:13.112Z,6.82
2017-12-01T10:56:13.839Z,6.95
2017-12-01T10:57:14.556Z,6.96
2017-12-01T10:58:15.272Z,7.25
2017-12-01T10:59:15.989Z,8.05
2017-12-01T11:00:16.720Z,8.45
2017-12-01T11:01:17.436Z,8.71
2017-12-01T11:02:18.159Z,9.14
2017-12-01T11:03:18.887Z,9.73
2017-12-01T11:04:19.608Z,10.49
2017-12-01T11:05:20.332Z,10.60
2017-12-01T11:06:21.047Z,10.90
2017-12-01T11:07:21.766Z,11.66
2017-12-01T11:08:22.487Z,12.03
2017-12-01T11:09:23.208Z,11.87
2017-12-01T11:10:23.930Z,11.97
2017-12-01T11:11:24.650Z,12.00
2017-12-01T11:12:25.371Z,11.90
2017-12-01T11:13:26.093Z,11.91
2017-12-01T11:14:26.814Z,12.12
2017-12-01T11:15:27.536Z,11.90
2017-12-01T11:16:28.269Z,11.73
2017-12-01T11:17:28.990Z,11.50
2017-12-01T11:18:29.713Z,11.70
2017-12-01T11:19:30.435Z,12.47
2017-12-01T11:20:31.158Z,13.38
2017-12-01T11:21:31.880Z,13.52
2017-12-01T11:22:32.604Z,13.60
2017-12-01T11:23:33.328Z,14.07
2017-12-01T11:24:34.051Z,13.49
2017-12-01T11:25:34.776Z,13.96
2017-12-01T11:26:35.512Z,13.78
2017-12-01T11:27:36.235Z,12.98
2017-12-01T11:28:36.957Z,13.09
2017-12-01T11:29:37.682Z,12.45
2017-12-01T11:30:38.405Z,12.21
2017-12-01T11:31:39.127Z,11.81
2017-12-01T11:32:39.860Z,11.52
2017-12-01T11:33:40.581Z,11.10
2017-12-01T11:34:41.304Z,10.67
2017-12-01T11:35:42.026Z,10.22
2017-12-01T11:36:42.746Z,10.13
2017-12-01T11:37:43.467Z,9.79
2017-12-01T11:38:44.187Z,9.62
2017-12-01T11:39:44.920Z,9.74
2017-12-01T11:40:45.639Z,9.72
2017-12-01T11:41:46.359Z,9.80
2017-12-01T11:42:47.079Z,9.76
2017-12-01T11:43:47.813Z,9.68
2017-12-01T11:44:48.533Z,9.58
2017-12-01T11:45:49.252Z,9.51
2017-12-01T11:46:49.982Z,9.39
2017-12-01T11:47:50.700Z,9.28
2017-12-01T11:48:51.418Z,9.02
2017-12-01T11:49:52.146Z,8.82
2017-12-01T11:50:52.863Z,8.56
2017-12-01T11:51:53.582Z,8.44
2017-12-01T11:52:54.300Z,8.28
2017-12-01T11:53:55.016Z,7.88
2017-12-01T11:54:55.746Z,7.73
2017-12-01T11:55:56.463Z,7.67
2017-12-01T11:56:57.179Z,7.50
2017-12-01T11:57:57.896Z,7.56
2017-12-01T11:58:58.618Z,7.54
2017-12-01T11:59:59.341Z,7.93
2017-12-01T12:01:00.058Z,8.69
2017-12-01T12:02:00.776Z,9.44
2017-12-01T12:03:01.496Z,10.35
2017-12-01T12:04:02.217Z,11.22
2017-12-01T12:05:02.938Z,11.65
2017-12-01T12:06:03.659Z,12.17
2017-12-01T12:07:04.381Z,12.00
2017-12-01T12:08:05.102Z,12.24
2017-12-01T12:09:05.825Z,12.43
2017-12-01T12:10:06.546Z,12.36
2017-12-01T12:11:07.265Z,12.22
2017-12-01T12:12:07.988Z,12.18
2017-12-01T12:13:08.708Z,12.15
2017-12-01T12:14:09.431Z,11.73
2017-12-01T12:15:10.162Z,11.48
2017-12-01T12:16:10.927Z,11.17
2017-12-01T12:17:11.611Z,10.82
2017-12-01T12:18:12.330Z,10.41
2017-12-01T12:19:13.052Z,10.46
2017-12-01T12:20:13.782Z,10.23
2017-12-01T12:21:14.511Z,9.95
2017-12-01T12:22:15.232Z,9.76
2017-12-01T12:23:15.947Z,9.76
2017-12-01T12:24:16.665Z,9.55
2017-12-01T12:25:17.393Z,9.31
2017-12-01T12:26:18.120Z,9.10
2017-12-01T12:27:18.851Z,8.87
2017-12-01T12:28:19.566Z,8.84
2017-12-01T12:29:20.280Z,8.67
2017-12-01T12:30:20.996Z,8.66
2017-12-01T12:31:21.712Z,8.45
2017-12-01T12:32:22.429Z,8.30
2017-12-01T12:33:23.144Z,8.13
2017-12-01T12:34:23.873Z,7.98
2017-12-01T12:35:24.585Z,7.93
2017-12-01T12:36:25.298Z,7.70
2017-12-01T12:37:26.013Z,7.69
2017-12-01T12:38:26.727Z,7.48
2017-12-01T12:39:27.440Z,7.45
2017-12-01T12:40:28.155Z,7.31
2017-12-01T12:41:28.866Z,7.10
2017-12-01T12:42:29.592Z,6.97
2017-12-01T12:43:30.305Z,6.99
2017-12-01T12:44:31.016Z,6.84
2017-12-01T12:45:31.727Z,6.96
2017-12-01T12:46:32.442Z,6.82
2017-12-01T12:47:33.164Z,6.95
2017-12-01T12:48:33.877Z,6.87
2017-12-01T12:49:34.592Z,6.85
2017-12-01T12:50:35.304Z,6.87
2017-12-01T12:51:36.028Z,6.87
2017-12-01T12:52:36.741Z,6.75
2017-12-01T12:53:37.473Z,6.77
2017-12-01T12:54:38.178Z,6.67
2017-12-01T12:55:38.891Z,6.77
2017-12-01T12:56:39.614Z,6.70
2017-12-01T12:57:40.327Z,6.52
2017-12-01T12:58:41.053Z,6.57
2017-12-01T12:59:41.766Z,6.51
2017-12-01T13:00:42.478Z,6.48
2017-12-01T13:01:43.190Z,6.54
2017-12-01T13:02:43.902Z,6.41
2017-12-01T13:03:44.630Z,6.39
2017-12-01T13:04:45.344Z,6.36
2017-12-01T13:05:46.056Z,6.39
2017-12-01T13:06:46.768Z,6.35
2017-12-01T13:07:47.480Z,6.31
2017-12-01T13:08:48.204Z,6.20
2017-12-01T13:09:48.918Z,6.17
2017-12-01T13:10:49.631Z,6.04
2017-12-01T13:11:50.340Z,6.05
2017-12-01T13:12:51.050Z,5.90
2017-12-01T13:13:51.761Z,5.97
2017-12-01T13:14:52.482Z,5.89
2017-12-01T13:15:53.194Z,5.86
2017-12-01T13:16:53.926Z,5.89
2017-12-01T13:17:54.618Z,5.80
2017-12-01T13:18:55.332Z,5.76
2017-12-01T13:19:56.042Z,5.71
2017-12-01T13:20:56.760Z,5.66
2017-12-01T13:21:57.471Z,5.75
2017-12-01T13:22:58.196Z,5.66
2017-12-01T13:23:58.906Z,5.62
2017-12-01T13:24:59.617Z,5.68
2017-12-01T13:26:00.328Z,5.69